createdAt,value
2018-12-17T00:00:28.783Z,31.70
2018-12-17T00:02:57.975Z,33.95
2018-12-17T00:05:26.924Z,31.02
2018-12-17T00:07:56.167Z,35.35
2018-12-17T00:10:25.070Z,28.87
2018-12-17T00:12:53.949Z,36.75
2018-12-17T00:15:22.952Z,34.20
2018-12-17T00:17:51.837Z,28.10
2018-12-17T00:20:20.777Z,32.90
2018-12-17T00:22:49.701Z,33.75
2018-12-17T00:25:18.637Z,28.40
2018-12-17T00:27:47.502Z,28.20
2018-12-17T00:30:16.394Z,33.58
2018-12-17T00:32:45.364Z,30.50
2018-12-17T00:35:14.377Z,32.53
2018-12-17T00:37:43.317Z,33.45
2018-12-17T00:40:12.584Z,31.12
2018-12-17T00:42:41.592Z,31.75
2018-12-17T00:45:10.617Z,29.63
2018-12-17T00:47:39.522Z,26.70
2018-12-17T00:50:08.758Z,33.95
2018-12-17T00:52:37.669Z,28.95
2018-12-17T00:55:07.097Z,33.28
2018-12-17T00:57:36.046Z,31.45
2018-12-17T01:00:08.064Z,28.23
2018-12-17T01:02:36.989Z,28.50
2018-12-17T01:05:06.802Z,28.80
2018-12-17T01:07:35.893Z,28.80
2018-12-17T01:10:06.985Z,30.88
2018-12-17T01:12:35.895Z,31.70
2018-12-17T01:15:06.332Z,30.62
2018-12-17T01:17:35.327Z,31.48
2018-12-17T01:20:05.395Z,26.12
2018-12-17T01:22:34.477Z,30.02
2018-12-17T01:25:03.554Z,25.15
2018-12-17T01:27:32.510Z,26.85
2018-12-17T01:30:01.445Z,30.30
2018-12-17T01:32:30.413Z,25.05
2018-12-17T01:34:59.308Z,29.50
2018-12-17T01:37:28.182Z,30.97
2018-12-17T01:39:57.105Z,29.25
2018-12-17T01:42:26.042Z,34.23
2018-12-17T01:44:54.892Z,31.33
2018-12-17T01:47:23.815Z,32.08
2018-12-17T01:49:52.706Z,28.98
2018-12-17T01:52:21.606Z,29.95
2018-12-17T01:54:50.537Z,27.73
2018-12-17T01:57:19.413Z,26.95
2018-12-17T01:59:48.288Z,28.67
2018-12-17T02:02:17.195Z,28.32
2018-12-17T02:04:46.413Z,25.75
2018-12-17T02:07:16.253Z,27.00
2018-12-17T02:09:45.265Z,28.30
2018-12-17T02:12:14.237Z,27.00
2018-12-17T02:14:43.234Z,34.00
2018-12-17T02:17:12.169Z,27.35
2018-12-17T02:19:41.064Z,27.90
2018-12-17T02:22:09.961Z,29.23
2018-12-17T02:24:38.915Z,35.10
2018-12-17T02:27:07.786Z,26.50
2018-12-17T02:29:36.671Z,25.92
2018-12-17T02:32:05.622Z,28.62
2018-12-17T02:34:34.478Z,27.55
2018-12-17T02:37:03.450Z,28.42
2018-12-17T02:39:32.361Z,31.62
2018-12-17T02:42:01.245Z,30.62
2018-12-17T02:44:30.324Z,29.57
2018-12-17T02:46:59.213Z,29.15
2018-12-17T02:49:28.437Z,33.02
2018-12-17T02:51:57.437Z,27.75
2018-12-17T02:54:26.383Z,23.20
2018-12-17T02:56:55.264Z,24.95
2018-12-17T02:59:24.141Z,29.90
2018-12-17T03:01:53.361Z,28.32
2018-12-17T03:04:22.249Z,29.23
2018-12-17T03:06:51.142Z,40.90
2018-12-17T03:09:20.037Z,32.85
2018-12-17T03:11:48.947Z,31.68
2018-12-17T03:14:17.886Z,30.75
2018-12-17T03:16:46.849Z,33.80
2018-12-17T03:19:15.696Z,32.50
2018-12-17T03:21:44.601Z,39.18
2018-12-17T03:24:13.533Z,30.08
2018-12-17T03:26:42.430Z,36.05
2018-12-17T03:29:11.314Z,31.27
2018-12-17T03:31:40.822Z,36.98
2018-12-17T03:34:09.820Z,29.70
2018-12-17T03:36:38.714Z,34.30
2018-12-17T03:39:08.064Z,50.23
2018-12-17T03:41:37.197Z,30.62
2018-12-17T03:44:06.121Z,36.38
2018-12-17T03:46:35.069Z,38.13
2018-12-17T03:49:04.007Z,34.15
2018-12-17T03:51:32.873Z,34.95
2018-12-17T03:54:01.871Z,37.60
2018-12-17T03:56:30.750Z,33.58
2018-12-17T03:58:59.678Z,38.02
2018-12-17T04:01:28.629Z,37.00
2018-12-17T04:03:57.506Z,45.20
2018-12-17T04:06:26.385Z,30.45
2018-12-17T04:08:55.315Z,35.03
2018-12-17T04:11:24.191Z,36.28
2018-12-17T04:13:53.156Z,33.02
2018-12-17T04:16:22.144Z,36.83
2018-12-17T04:18:51.040Z,35.03
2018-12-17T04:21:19.931Z,32.50
2018-12-17T04:23:48.847Z,37.00
2018-12-17T04:26:17.719Z,32.83
2018-12-17T04:28:46.636Z,39.40
2018-12-17T04:31:15.687Z,34.67
2018-12-17T04:33:44.537Z,39.33
2018-12-17T04:36:13.422Z,31.68
2018-12-17T04:38:42.393Z,39.53
2018-12-17T04:41:11.273Z,42.05
2018-12-17T04:43:40.155Z,35.63
2018-12-17T04:46:09.039Z,39.53
2018-12-17T04:48:37.907Z,37.25
2018-12-17T04:51:07.753Z,34.75
2018-12-17T04:53:36.693Z,38.53
2018-12-17T04:56:05.655Z,35.38
2018-12-17T04:58:34.528Z,42.62
2018-12-17T05:01:03.511Z,38.80
2018-12-17T05:03:33.377Z,40.63
2018-12-17T05:06:02.277Z,37.60
2018-12-17T05:08:32.042Z,40.92
2018-12-17T05:11:00.955Z,48.80
2018-12-17T05:13:29.830Z,45.60
2018-12-17T05:15:58.761Z,50.35
2018-12-17T05:18:27.701Z,48.40
2018-12-17T05:20:56.593Z,44.95
2018-12-17T05:23:25.586Z,52.20
2018-12-17T05:25:54.486Z,54.90
2018-12-17T05:28:23.396Z,47.70
2018-12-17T05:30:52.342Z,49.77
2018-12-17T05:33:21.973Z,52.95
2018-12-17T05:35:50.848Z,54.90
2018-12-17T05:38:19.771Z,48.02
2018-12-17T05:40:49.189Z,62.08
2018-12-17T05:43:18.140Z,53.83
2018-12-17T05:45:47.058Z,51.63
2018-12-17T05:48:15.961Z,47.50
2018-12-17T05:50:44.913Z,52.62
2018-12-17T05:53:13.941Z,54.60
2018-12-17T05:55:44.216Z,49.53
2018-12-17T05:58:13.349Z,51.25
2018-12-17T06:00:42.250Z,47.65
2018-12-17T06:03:11.111Z,52.85
2018-12-17T06:05:40.017Z,48.50
2018-12-17T06:08:10.939Z,48.13
2018-12-17T06:10:39.840Z,50.83
2018-12-17T06:13:08.770Z,44.77
2018-12-17T06:15:37.694Z,44.18
2018-12-17T06:18:06.654Z,48.15
2018-12-17T06:20:35.719Z,45.50
2018-12-17T06:23:04.618Z,44.50
2018-12-17T06:25:34.107Z,45.00
2018-12-17T06:28:03.133Z,40.35
2018-12-17T06:30:31.996Z,37.15
2018-12-17T06:33:00.910Z,37.80
2018-12-17T06:35:29.840Z,39.48
2018-12-17T06:37:58.759Z,40.40
2018-12-17T06:40:27.693Z,40.95
2018-12-17T06:42:56.625Z,34.38
2018-12-17T06:45:25.557Z,42.80
2018-12-17T06:47:54.481Z,48.08
2018-12-17T06:50:23.467Z,42.38
2018-12-17T06:52:52.362Z,40.52
2018-12-17T06:55:21.298Z,43.02
2018-12-17T06:57:50.695Z,39.08
2018-12-17T07:00:19.597Z,42.00
2018-12-17T07:02:48.522Z,44.65
2018-12-17T07:05:17.441Z,38.75
2018-12-17T07:07:46.315Z,39.03
2018-12-17T07:10:15.235Z,45.63
2018-12-17T07:12:44.181Z,35.92
2018-12-17T07:15:13.086Z,40.95
2018-12-17T07:17:42.021Z,39.85
2018-12-17T07:20:11.045Z,35.10
2018-12-17T07:22:39.945Z,43.70
2018-12-17T07:25:08.889Z,42.00
2018-12-17T07:27:37.884Z,39.73
2018-12-17T07:30:07.291Z,38.40
2018-12-17T07:32:36.187Z,41.80
2018-12-17T07:35:05.453Z,46.98
2018-12-17T07:37:34.378Z,46.88
2018-12-17T07:40:03.320Z,39.05
2018-12-17T07:42:32.614Z,34.73
2018-12-17T07:45:01.811Z,41.75
2018-12-17T07:47:30.806Z,45.40
2018-12-17T07:49:59.778Z,37.35
2018-12-17T07:52:28.689Z,41.33
2018-12-17T07:54:57.674Z,42.20
2018-12-17T07:57:26.625Z,45.60
2018-12-17T07:59:56.906Z,32.40
2018-12-17T08:02:26.277Z,40.73
2018-12-17T08:04:55.254Z,40.95
2018-12-17T08:07:24.154Z,44.63
2018-12-17T08:09:53.056Z,41.37
2018-12-17T08:12:22.049Z,41.15
2018-12-17T08:14:50.964Z,44.08
2018-12-17T08:17:20.151Z,41.45
2018-12-17T08:19:49.218Z,45.10
2018-12-17T08:22:18.277Z,42.55
2018-12-17T08:24:47.173Z,47.40
2018-12-17T08:27:16.094Z,43.28
2018-12-17T08:29:44.961Z,46.58
2018-12-17T08:32:13.898Z,44.65
2018-12-17T08:34:43.429Z,52.95
2018-12-17T08:37:12.918Z,42.70
2018-12-17T08:39:41.897Z,42.48
2018-12-17T08:42:11.724Z,42.93
2018-12-17T08:44:40.897Z,44.98
2018-12-17T08:47:10.325Z,48.48
2018-12-17T08:49:39.376Z,45.03
2018-12-17T08:52:08.307Z,37.67
2018-12-17T08:54:37.243Z,43.68
2018-12-17T08:57:06.328Z,38.95
2018-12-17T08:59:35.203Z,39.48
2018-12-17T09:02:04.194Z,36.88
2018-12-17T09:04:33.458Z,42.75
2018-12-17T09:07:02.538Z,44.73
2018-12-17T09:09:31.490Z,40.00
2018-12-17T09:12:00.549Z,41.63
2018-12-17T09:14:29.590Z,39.27
2018-12-17T09:16:58.550Z,40.63
2018-12-17T09:19:27.689Z,40.43
2018-12-17T09:22:20.235Z,43.95
2018-12-17T09:25:05.624Z,39.20
2018-12-17T09:27:56.121Z,50.70
2018-12-17T09:30:45.550Z,39.65
2018-12-17T09:33:14.452Z,43.70
2018-12-17T09:36:05.200Z,39.70
2018-12-17T09:38:34.119Z,44.83
2018-12-17T09:41:03.130Z,39.25
2018-12-17T09:43:32.018Z,36.58
2018-12-17T09:46:01.145Z,45.25
2018-12-17T09:48:30.227Z,44.60
2018-12-17T09:50:59.103Z,41.85
2018-12-17T09:53:27.994Z,43.63
2018-12-17T09:55:57.050Z,38.17
2018-12-17T09:58:26.123Z,48.10
2018-12-17T10:00:55.026Z,40.63
2018-12-17T10:03:24.545Z,50.03
2018-12-17T10:05:54.237Z,43.30
2018-12-17T10:08:23.080Z,44.10
2018-12-17T10:10:52.078Z,35.95
2018-12-17T10:13:20.949Z,36.95
2018-12-17T10:15:49.856Z,41.18
2018-12-17T10:18:18.781Z,35.15
2018-12-17T10:20:47.665Z,36.53
2018-12-17T10:23:16.548Z,41.25
2018-12-17T10:25:45.482Z,34.40
2018-12-17T10:28:14.348Z,37.08
2018-12-17T10:30:43.377Z,37.17
2018-12-17T10:33:12.472Z,31.73
2018-12-17T10:35:41.378Z,31.40
2018-12-17T10:38:10.645Z,34.38
2018-12-17T10:40:39.715Z,32.65
2018-12-17T10:43:08.631Z,34.13
2018-12-17T10:45:37.535Z,36.70
2018-12-17T10:48:06.533Z,33.15
2018-12-17T10:50:36.603Z,33.15
2018-12-17T10:53:05.611Z,35.60
2018-12-17T10:55:34.557Z,36.05
2018-12-17T10:58:03.661Z,26.12
2018-12-17T11:00:39.699Z,30.05
2018-12-17T11:03:12.939Z,30.40
2018-12-17T11:05:45.374Z,32.88
2018-12-17T11:08:15.157Z,34.88
2018-12-17T11:10:44.096Z,30.50
2018-12-17T11:13:13.029Z,37.05
2018-12-17T11:15:41.898Z,31.33
2018-12-17T11:18:10.861Z,29.18
2018-12-17T11:20:39.913Z,36.58
2018-12-17T11:23:08.881Z,42.45
2018-12-17T11:25:37.784Z,35.78
2018-12-17T11:28:06.729Z,38.08
2018-12-17T11:30:50.397Z,29.30
2018-12-17T11:33:19.408Z,39.73
2018-12-17T11:35:48.454Z,38.33
2018-12-17T11:38:17.382Z,35.30
2018-12-17T11:40:46.313Z,34.85
2018-12-17T11:43:15.378Z,37.13
2018-12-17T11:45:44.493Z,52.73
2018-12-17T11:48:13.655Z,43.80
2018-12-17T11:50:42.751Z,34.48
2018-12-17T11:53:11.774Z,41.98
2018-12-17T11:55:40.834Z,37.93
2018-12-17T11:58:16.472Z,38.20
2018-12-17T12:01:19.111Z,34.05
2018-12-17T12:03:48.452Z,47.93
2018-12-17T12:06:17.556Z,38.28
2018-12-17T12:08:46.627Z,36.53
2018-12-17T12:11:16.318Z,40.63
2018-12-17T12:13:46.733Z,38.65
2018-12-17T12:16:16.356Z,35.25
2018-12-17T12:18:46.831Z,35.88
2018-12-17T12:21:16.668Z,38.28
2018-12-17T12:23:45.966Z,45.85
2018-12-17T12:26:15.915Z,39.70
2018-12-17T12:28:45.160Z,39.58
2018-12-17T12:31:15.234Z,43.63
2018-12-17T12:33:45.326Z,41.55
2018-12-17T12:36:15.551Z,39.73
2018-12-17T12:38:45.079Z,42.23
2018-12-17T12:41:14.348Z,39.03
2018-12-17T12:43:44.516Z,40.15
2018-12-17T12:46:14.570Z,49.60
2018-12-17T12:48:43.832Z,35.35
2018-12-17T12:51:13.611Z,45.17
2018-12-17T12:53:42.902Z,46.92
2018-12-17T12:56:12.105Z,42.95
2018-12-17T12:58:41.326Z,45.52
2018-12-17T13:01:10.755Z,49.63
2018-12-17T13:03:40.764Z,42.95
2018-12-17T13:06:13.392Z,59.58
2018-12-17T13:08:42.619Z,45.40
2018-12-17T13:11:11.878Z,41.55
2018-12-17T13:13:41.734Z,40.48
2018-12-17T13:16:10.928Z,47.05
2018-12-17T13:18:40.093Z,48.63
2018-12-17T13:21:10.096Z,54.38
2018-12-17T13:23:39.299Z,52.27
2018-12-17T13:26:08.594Z,42.83
2018-12-17T13:28:37.651Z,49.00
2018-12-17T13:31:07.240Z,47.67
2018-12-17T13:33:37.290Z,49.90
2018-12-17T13:36:06.810Z,39.88
2018-12-17T13:38:35.881Z,45.67
2018-12-17T13:41:05.790Z,52.20
2018-12-17T13:43:35.572Z,48.85
2018-12-17T13:46:04.872Z,43.33
2018-12-17T13:48:34.011Z,46.98
2018-12-17T13:51:08.426Z,45.20
2018-12-17T13:53:37.566Z,39.15
2018-12-17T13:56:06.489Z,45.20
2018-12-17T13:58:35.421Z,44.08
2018-12-17T14:01:04.322Z,40.38
2018-12-17T14:03:33.220Z,43.60
2018-12-17T14:06:02.150Z,37.53
2018-12-17T14:08:31.034Z,54.20
2018-12-17T14:10:59.944Z,57.23
2018-12-17T14:13:28.871Z,55.38
2018-12-17T14:16:03.351Z,50.08
2018-12-17T14:18:37.474Z,51.90
2018-12-17T14:21:11.629Z,54.30
2018-12-17T14:23:40.566Z,52.90
2018-12-17T14:26:09.456Z,59.33
2018-12-17T14:28:38.322Z,50.75
2018-12-17T14:31:08.521Z,53.87
2018-12-17T14:33:37.546Z,64.72
2018-12-17T14:36:09.890Z,56.88
2018-12-17T14:38:39.529Z,49.00
2018-12-17T14:41:08.420Z,47.45
2018-12-17T14:43:37.385Z,46.95
2018-12-17T14:46:06.324Z,42.58
2018-12-17T14:48:35.390Z,37.42
2018-12-17T14:51:04.386Z,44.03
2018-12-17T14:53:33.329Z,46.92
2018-12-17T14:56:02.541Z,54.65
2018-12-17T14:58:31.571Z,50.73
2018-12-17T15:01:00.522Z,66.00
2018-12-17T15:03:29.401Z,56.95
2018-12-17T15:05:58.377Z,57.65
2018-12-17T15:08:27.427Z,59.42
2018-12-17T15:10:56.329Z,54.13
2018-12-17T15:13:25.275Z,55.43
2018-12-17T15:15:54.157Z,52.15
2018-12-17T15:18:23.029Z,63.13
2018-12-17T15:20:51.985Z,60.40
2018-12-17T15:23:20.936Z,70.75
2018-12-17T15:25:49.806Z,47.23
2018-12-17T15:28:18.744Z,48.02
2018-12-17T15:30:47.737Z,42.13
2018-12-17T15:33:16.661Z,61.35
2018-12-17T15:35:45.804Z,54.48
2018-12-17T15:38:14.724Z,61.23
2018-12-17T15:40:43.650Z,54.03
2018-12-17T15:43:13.038Z,55.35
2018-12-17T15:45:41.974Z,62.73
2018-12-17T15:48:10.889Z,57.78
2018-12-17T15:50:39.840Z,49.98
2018-12-17T15:53:08.701Z,62.90
2018-12-17T15:55:37.584Z,62.25
2018-12-17T15:58:06.556Z,60.20
2018-12-17T16:00:35.502Z,79.60
2018-12-17T16:03:04.530Z,76.72
2018-12-17T16:05:33.506Z,64.55
2018-12-17T16:08:02.429Z,65.85
2018-12-17T16:10:31.497Z,60.20
2018-12-17T16:13:01.500Z,75.32
2018-12-17T16:15:30.613Z,65.00
2018-12-17T16:18:00.765Z,60.73
2018-12-17T16:20:29.865Z,65.35
2018-12-17T16:22:59.001Z,57.60
2018-12-17T16:25:28.837Z,68.62
2018-12-17T16:27:58.127Z,59.65
2018-12-17T16:30:27.204Z,77.15
2018-12-17T16:32:56.260Z,73.72
2018-12-17T16:35:25.309Z,74.82
2018-12-17T16:37:54.386Z,72.17
2018-12-17T16:40:23.880Z,81.57
2018-12-17T16:42:52.760Z,77.85
2018-12-17T16:45:21.689Z,77.40
2018-12-17T16:47:50.695Z,79.30
2018-12-17T16:50:19.586Z,76.22
2018-12-17T16:52:48.629Z,64.32
2018-12-17T16:55:17.586Z,94.28
2018-12-17T16:57:46.486Z,73.02
2018-12-17T17:00:15.404Z,78.83
2018-12-17T17:02:44.319Z,69.00
2018-12-17T17:05:13.273Z,73.05
2018-12-17T17:07:42.130Z,78.33
2018-12-17T17:10:11.128Z,66.90
2018-12-17T17:12:40.058Z,88.65
2018-12-17T17:15:11.568Z,72.27
2018-12-17T17:17:40.452Z,64.62
2018-12-17T17:20:09.813Z,72.35
2018-12-17T17:22:38.793Z,73.95
2018-12-17T17:25:07.824Z,75.05
2018-12-17T17:27:36.770Z,77.40
2018-12-17T17:30:06.794Z,72.15
2018-12-17T17:32:35.719Z,65.28
2018-12-17T17:35:05.132Z,69.25
2018-12-17T17:37:34.493Z,82.42
2018-12-17T17:40:03.644Z,77.87
2018-12-17T17:42:32.678Z,72.32
2018-12-17T17:45:01.735Z,68.60
2018-12-17T17:47:30.628Z,70.67
2018-12-17T17:49:59.550Z,76.02
2018-12-17T17:52:28.536Z,68.40
2018-12-17T17:54:57.570Z,66.40
2018-12-17T17:57:26.526Z,66.22
2018-12-17T17:59:55.505Z,69.00
2018-12-17T18:02:24.399Z,67.65
2018-12-17T18:04:53.286Z,70.83
2018-12-17T18:07:22.180Z,68.37
2018-12-17T18:09:51.048Z,74.27
2018-12-17T18:12:19.966Z,78.28
2018-12-17T18:14:48.915Z,64.22
2018-12-17T18:17:17.850Z,61.05
2018-12-17T18:19:46.757Z,66.87
2018-12-17T18:22:15.813Z,57.75
2018-12-17T18:24:52.191Z,56.92
2018-12-17T18:27:21.227Z,58.95
2018-12-17T18:29:50.167Z,60.00
2018-12-17T18:32:25.986Z,63.42
2018-12-17T18:34:51.163Z,72.05
2018-12-17T18:37:20.068Z,76.77
2018-12-17T18:39:48.995Z,68.40
2018-12-17T18:42:17.997Z,67.50
2018-12-17T18:44:47.213Z,69.58
2018-12-17T18:47:16.152Z,69.42
2018-12-17T18:49:45.069Z,71.30
2018-12-17T18:52:14.090Z,75.42
2018-12-17T18:54:42.999Z,63.52
2018-12-17T18:57:12.164Z,66.85
2018-12-17T18:59:42.931Z,72.67
2018-12-17T19:02:12.078Z,74.53
2018-12-17T19:04:41.530Z,86.50
2018-12-17T19:07:10.494Z,71.28
2018-12-17T19:09:39.632Z,79.97
2018-12-17T19:12:08.561Z,81.30
2018-12-17T19:14:37.559Z,74.53
2018-12-17T19:17:06.716Z,65.87
2018-12-17T19:19:35.695Z,91.92
2018-12-17T19:22:04.702Z,70.65
2018-12-17T19:24:33.723Z,76.82
2018-12-17T19:27:02.753Z,78.72
2018-12-17T19:29:31.750Z,71.33
2018-12-17T19:32:00.737Z,67.37
2018-12-17T19:34:29.778Z,103.42
2018-12-17T19:36:58.751Z,84.58
2018-12-17T19:39:27.732Z,77.97
2018-12-17T19:41:56.653Z,68.80
2018-12-17T19:44:25.785Z,77.60
2018-12-17T19:46:54.863Z,80.17
2018-12-17T19:49:24.054Z,67.62
2018-12-17T19:51:53.146Z,80.03
2018-12-17T19:54:22.275Z,88.72
2018-12-17T19:56:51.408Z,83.50
2018-12-17T19:59:20.340Z,88.42
2018-12-17T20:01:49.897Z,100.82
2018-12-17T20:04:19.713Z,88.42
2018-12-17T20:06:48.962Z,83.42
2018-12-17T20:09:17.986Z,73.17
2018-12-17T20:11:48.339Z,90.28
2018-12-17T20:14:18.492Z,92.97
2018-12-17T20:16:47.780Z,77.42
2018-12-17T20:19:16.846Z,80.38
2018-12-17T20:21:45.867Z,82.30
2018-12-17T20:24:15.896Z,79.30
2018-12-17T20:26:45.387Z,88.37
2018-12-17T20:29:14.350Z,84.42
2018-12-17T20:31:44.059Z,91.90
2018-12-17T20:34:13.049Z,90.90
2018-12-17T20:36:43.417Z,85.38
2018-12-17T20:39:12.606Z,82.92
2018-12-17T20:41:41.932Z,85.47
2018-12-17T20:44:11.029Z,72.15
2018-12-17T20:46:40.087Z,70.95
2018-12-17T20:49:09.638Z,74.42
2018-12-17T20:51:39.474Z,70.55
2018-12-17T20:54:12.937Z,84.85
2018-12-17T20:56:41.980Z,77.40
2018-12-17T20:59:10.970Z,68.62
2018-12-17T21:01:41.236Z,79.05
2018-12-17T21:04:11.702Z,66.40
2018-12-17T21:06:41.386Z,68.37
2018-12-17T21:09:11.698Z,79.30
2018-12-17T21:11:41.261Z,66.05
2018-12-17T21:14:14.164Z,63.02
2018-12-17T21:16:43.678Z,56.00
2018-12-17T21:19:14.288Z,64.62
2018-12-17T21:21:43.475Z,55.85
2018-12-17T21:24:12.947Z,63.42
2018-12-17T21:26:42.848Z,58.20
2018-12-17T21:29:12.866Z,70.17
2018-12-17T21:31:43.658Z,70.97
2018-12-17T21:34:12.648Z,54.08
2018-12-17T21:36:59.216Z,71.60
2018-12-17T21:39:28.237Z,55.35
2018-12-17T21:41:58.712Z,74.07
2018-12-17T21:44:28.058Z,65.92
2018-12-17T21:46:57.016Z,68.20
2018-12-17T21:49:26.821Z,70.15
2018-12-17T21:51:55.990Z,67.45
2018-12-17T21:54:24.909Z,70.75
2018-12-17T21:56:53.874Z,71.87
2018-12-17T21:59:23.504Z,74.50
2018-12-17T22:01:52.425Z,77.27
2018-12-17T22:04:21.409Z,66.57
2018-12-17T22:06:50.340Z,74.17
2018-12-17T22:09:19.575Z,74.67
2018-12-17T22:11:49.816Z,66.35
2018-12-17T22:14:19.545Z,76.57
2018-12-17T22:16:48.573Z,68.40
2018-12-17T22:19:17.537Z,67.40
2018-12-17T22:21:46.580Z,60.52
2018-12-17T22:24:15.526Z,69.25
2018-12-17T22:26:44.493Z,74.65
2018-12-17T22:29:13.380Z,69.65
2018-12-17T22:31:42.289Z,64.62
2018-12-17T22:34:11.214Z,64.53
2018-12-17T22:36:40.130Z,65.03
2018-12-17T22:39:09.041Z,75.20
2018-12-17T22:41:38.015Z,65.83
2018-12-17T22:44:06.892Z,69.37
2018-12-17T22:46:35.824Z,64.03
2018-12-17T22:49:04.816Z,69.40
2018-12-17T22:51:33.712Z,70.62
2018-12-17T22:54:02.725Z,57.27
2018-12-17T22:56:31.634Z,74.03
2018-12-17T22:59:00.565Z,79.47
2018-12-17T23:01:29.506Z,63.25
2018-12-17T23:03:58.461Z,76.02
2018-12-17T23:06:27.360Z,62.13
2018-12-17T23:09:06.071Z,66.82
2018-12-17T23:11:51.461Z,67.32
2018-12-17T23:14:31.506Z,73.12
2018-12-17T23:17:11.504Z,67.65
2018-12-17T23:19:43.721Z,65.10
2018-12-17T23:22:12.806Z,80.40
2018-12-17T23:24:42.607Z,70.32
2018-12-17T23:27:11.527Z,90.57
2018-12-17T23:29:40.485Z,77.35
2018-12-17T23:32:09.346Z,74.25
2018-12-17T23:34:38.356Z,68.50
2018-12-17T23:37:07.250Z,75.90
2018-12-17T23:39:36.123Z,81.22
2018-12-17T23:42:05.027Z,74.22
2018-12-17T23:44:37.344Z,79.20
2018-12-17T23:47:06.292Z,68.12
2018-12-17T23:49:35.161Z,69.37
2018-12-17T23:52:04.080Z,65.22
2018-12-17T23:54:32.993Z,69.30
2018-12-17T23:57:01.944Z,66.45
2018-12-17T23:59:30.839Z,68.00
